Time;durP1;ratioP1;P1;durP2;ratioP2;P2;SDS_P1;SDS_P2;PMS_P1;PMS_P2;Temp;Humidity;BMP_temperature;BMP_pressure;BME280_temperature;BME280_humidity;BME280_pressure;Samples;Min_cycle;Max_cycle;Signal;HPM_P1;HPM_P2
2023/05/29 00:01:18;;;;;;;3.70;2.20;;;;;;;19.74;64.20;98410.59;5034035;28;20059;-71
2023/05/29 00:03:47;;;;;;;3.00;1.92;;;;;;;19.73;64.04;98408.94;5035102;28;20029;-72
2023/05/29 00:06:13;;;;;;;3.95;1.90;;;;;;;19.73;63.88;98402.84;5034167;28;20061;-71
2023/05/29 00:08:39;;;;;;;2.30;1.85;;;;;;;19.73;63.91;98406.31;5017267;28;20061;-72
2023/05/29 00:11:04;;;;;;;4.55;2.20;;;;;;;19.73;63.84;98401.00;5034998;28;20578;-72
2023/05/29 00:13:30;;;;;;;3.47;1.88;;;;;;;19.72;63.85;98402.03;5033749;28;20025;-71
2023/05/29 00:15:56;;;;;;;3.58;1.95;;;;;;;19.73;63.79;98411.59;5017346;28;20114;-71
2023/05/29 00:18:21;;;;;;;3.83;2.00;;;;;;;19.70;63.70;98409.31;5033488;28;20026;-71
2023/05/29 00:20:47;;;;;;;4.15;1.92;;;;;;;19.68;63.69;98406.03;5035336;28;20030;-71
2023/05/29 00:23:12;;;;;;;2.72;1.58;;;;;;;19.70;63.60;98417.25;5034653;28;20033;-71
2023/05/29 00:25:40;;;;;;;7.68;2.17;;;;;;;19.66;63.49;98411.53;5033169;28;20052;-71
2023/05/29 00:28:06;;;;;;;3.47;1.80;;;;;;;19.65;63.38;98406.41;5032304;28;20420;-71
2023/05/29 00:30:32;;;;;;;5.30;1.85;;;;;;;19.65;63.28;98406.41;5016841;28;20128;-72
2023/05/29 00:32:58;;;;;;;3.33;1.70;;;;;;;19.67;63.31;98409.69;5000446;28;20117;-71
2023/05/29 00:35:24;;;;;;;3.58;2.10;;;;;;;19.66;63.10;98413.34;5033456;28;20034;-71
2023/05/29 00:37:49;;;;;;;3.00;1.50;;;;;;;19.67;63.19;98412.34;5033233;28;20068;-71
2023/05/29 00:40:15;;;;;;;3.10;2.00;;;;;;;19.64;63.26;98416.19;5034423;28;20022;-71
2023/05/29 00:42:40;;;;;;;2.53;1.88;;;;;;;19.65;62.99;98423.09;5000299;28;20037;-71
2023/05/29 00:45:06;;;;;;;4.03;1.60;;;;;;;19.66;62.99;98410.72;5016777;28;20048;-72
2023/05/29 00:47:32;;;;;;;4.35;1.77;;;;;;;19.66;63.17;98418.66;5034272;28;20030;-72
2023/05/29 00:49:57;;;;;;;3.28;1.73;;;;;;;19.65;63.12;98409.88;5032822;28;20083;-71
2023/05/29 00:52:24;;;;;;;3.60;1.80;;;;;;;19.64;63.10;98412.69;5016514;28;20034;-71
2023/05/29 00:54:50;;;;;;;3.35;1.88;;;;;;;19.62;63.11;98420.81;5016625;28;20092;-71
2023/05/29 00:57:15;;;;;;;3.10;1.83;;;;;;;19.61;63.25;98408.59;4999893;28;20053;-71
2023/05/29 00:59:41;;;;;;;3.88;1.80;;;;;;;19.58;63.17;98403.69;5033151;28;20076;-71
2023/05/29 01:02:07;;;;;;;2.78;1.70;;;;;;;19.60;63.27;98403.50;5016327;28;20025;-71
2023/05/29 01:04:35;;;;;;;4.93;2.20;;;;;;;19.56;63.18;98396.91;5016157;28;20037;-72
2023/05/29 01:07:02;;;;;;;4.18;1.90;;;;;;;19.56;63.32;98395.09;5017200;28;20473;-71
2023/05/29 01:09:29;;;;;;;3.08;1.83;;;;;;;19.55;63.28;98408.53;5016318;28;20032;-71
2023/05/29 01:12:27;;;;;;;3.00;2.33;;;;;;;19.57;63.30;98411.81;5032717;28;20033;-71
2023/05/29 01:15:14;;;;;;;2.80;1.90;;;;;;;19.56;63.25;98410.16;5011903;28;20528;-71
2023/05/29 01:18:01;;;;;;;2.75;1.80;;;;;;;19.53;63.35;98396.28;4995347;28;20029;-71
2023/05/29 01:20:43;;;;;;;5.05;1.88;;;;;;;19.53;63.28;98395.47;5012397;28;20124;-71
2023/05/29 01:23:34;;;;;;;2.55;2.05;;;;;;;19.52;63.31;98405.22;4996256;28;20088;-71
2023/05/29 01:26:25;;;;;;;8.15;2.35;;;;;;;19.52;63.40;98396.47;4995207;28;20080;-71
2023/05/29 01:28:52;;;;;;;3.03;1.85;;;;;;;19.50;63.24;98396.66;4995791;28;20482;-71
2023/05/29 01:31:19;;;;;;;3.40;2.20;;;;;;;19.49;63.28;98396.84;4995280;28;20081;-72
2023/05/29 01:33:54;;;;;;;4.20;2.67;;;;;;;19.51;63.19;98398.31;4995197;28;20073;-72
2023/05/29 01:36:20;;;;;;;4.57;2.70;;;;;;;19.48;63.26;98388.06;4995647;28;20571;-71
2023/05/29 01:38:47;;;;;;;3.90;2.33;;;;;;;19.50;62.94;98401.13;5011569;28;20054;-71
2023/05/29 01:41:12;;;;;;;3.63;2.42;;;;;;;19.51;63.04;98403.59;4978634;28;20065;-71
2023/05/29 01:43:37;;;;;;;4.47;2.50;;;;;;;19.51;62.96;98402.75;4995094;28;20438;-72
2023/05/29 01:46:03;;;;;;;3.95;2.47;;;;;;;19.51;62.89;98392.16;4995152;28;20053;-71
2023/05/29 01:48:28;;;;;;;4.25;2.70;;;;;;;19.50;62.98;98388.72;4994680;28;20034;-71
2023/05/29 01:50:55;;;;;;;4.00;2.75;;;;;;;19.48;62.92;98385.44;4998114;28;20060;-72
2023/05/29 01:53:20;;;;;;;4.32;2.38;;;;;;;19.50;62.68;98394.00;4999219;28;20041;-72
2023/05/29 01:55:46;;;;;;;4.57;2.92;;;;;;;19.52;62.86;98391.16;5031711;28;20103;-71
2023/05/29 01:58:12;;;;;;;4.80;2.80;;;;;;;19.51;62.74;98390.34;5015312;28;20084;-71
2023/05/29 02:00:38;;;;;;;4.28;2.90;;;;;;;19.52;62.81;98386.69;5031607;28;20037;-71
2023/05/29 02:03:03;;;;;;;2.72;2.42;;;;;;;19.50;63.02;98385.25;5031808;28;20041;-72
2023/05/29 02:05:29;;;;;;;4.07;2.90;;;;;;;19.52;62.72;98391.97;5031951;28;20171;-72
2023/05/29 02:07:54;;;;;;;5.00;2.88;;;;;;;19.53;62.73;98390.19;5032786;28;20546;-72
2023/05/29 02:10:20;;;;;;;3.60;2.55;;;;;;;19.51;62.78;98387.72;5031532;28;20037;-72
2023/05/29 02:12:46;;;;;;;6.28;3.10;;;;;;;19.51;62.67;98390.34;5031464;28;20036;-71
2023/05/29 02:15:11;;;;;;;4.13;2.95;;;;;;;19.51;62.77;98385.06;5014773;28;20128;-72
2023/05/29 02:17:37;;;;;;;4.57;3.05;;;;;;;19.48;62.75;98388.06;5031328;28;20036;-72
2023/05/29 02:20:04;;;;;;;4.95;3.40;;;;;;;19.51;62.72;98394.81;5014763;28;20025;-72
2023/05/29 02:22:29;;;;;;;4.13;2.90;;;;;;;19.47;62.71;98398.84;4998891;28;20440;-72
2023/05/29 02:24:55;;;;;;;4.22;3.10;;;;;;;19.48;62.76;98397.81;5030962;28;20087;-72
2023/05/29 02:27:20;;;;;;;4.38;2.67;;;;;;;19.49;62.51;98399.47;4998123;28;20072;-72
2023/05/29 02:29:46;;;;;;;3.47;2.80;;;;;;;19.48;62.59;98396.00;5014281;28;20056;-72
2023/05/29 02:32:11;;;;;;;3.50;2.95;;;;;;;19.49;62.59;98407.41;5032000;28;20040;-72
2023/05/29 02:34:37;;;;;;;5.43;2.85;;;;;;;19.47;62.48;98407.59;5014456;28;20052;-72
2023/05/29 02:37:03;;;;;;;4.60;2.97;;;;;;;19.48;62.38;98413.69;5014718;28;20056;-72
2023/05/29 02:39:28;;;;;;;4.35;3.03;;;;;;;19.48;62.37;98409.25;5032179;28;20022;-72
2023/05/29 02:41:54;;;;;;;3.47;2.95;;;;;;;19.47;62.39;98410.25;5032099;28;20053;-72
2023/05/29 02:44:20;;;;;;;4.55;3.13;;;;;;;19.45;62.40;98403.47;5014706;28;20465;-72
2023/05/29 02:46:45;;;;;;;4.18;3.08;;;;;;;19.47;62.29;98412.09;5014439;28;20061;-72
2023/05/29 02:49:11;;;;;;;3.95;2.70;;;;;;;19.47;62.16;98420.03;5030663;28;20056;-72
2023/05/29 02:51:37;;;;;;;5.90;3.58;;;;;;;19.46;62.17;98416.53;5046414;28;20077;-72
2023/05/29 02:54:02;;;;;;;5.63;2.85;;;;;;;19.44;62.01;98410.59;5032110;28;20029;-72
2023/05/29 02:56:28;;;;;;;5.45;2.83;;;;;;;19.47;62.12;98412.09;5030563;28;20033;-72
2023/05/29 02:58:53;;;;;;;4.72;2.72;;;;;;;19.43;62.18;98422.19;5031663;28;20440;-72
2023/05/29 03:01:19;;;;;;;6.72;3.10;;;;;;;19.48;62.06;98430.44;5030523;28;20053;-72
2023/05/29 03:03:44;;;;;;;4.50;2.80;;;;;;;19.48;62.04;98438.38;5030602;28;20029;-72
2023/05/29 03:06:12;;;;;;;5.40;3.13;;;;;;;19.48;62.01;98442.81;5030427;28;20026;-72
2023/05/29 03:08:40;;;;;;;4.57;3.23;;;;;;;19.48;61.94;98441.00;5014170;28;20038;-72
2023/05/29 03:11:11;;;;;;;4.38;2.80;;;;;;;19.50;61.92;98440.84;4998305;28;20485;-72
2023/05/29 03:13:37;;;;;;;4.07;3.00;;;;;;;19.45;61.94;98444.03;5030599;28;20049;-72
2023/05/29 03:16:03;;;;;;;3.67;2.97;;;;;;;19.47;61.85;98443.84;5030350;28;20477;-72
2023/05/29 03:18:28;;;;;;;3.70;3.20;;;;;;;19.47;61.83;98447.31;5030319;28;20079;-72
2023/05/29 03:20:54;;;;;;;5.07;3.22;;;;;;;19.51;61.67;98458.34;5030193;28;20116;-72
2023/05/29 03:23:20;;;;;;;3.97;3.00;;;;;;;19.48;61.75;98453.41;5013969;28;20033;-72
2023/05/29 03:25:45;;;;;;;3.97;3.15;;;;;;;19.51;61.66;98459.19;4997471;28;20472;-72
2023/05/29 03:28:11;;;;;;;3.53;3.10;;;;;;;19.52;61.53;98467.94;5031407;28;20025;-72
2023/05/29 03:30:36;;;;;;;5.30;2.95;;;;;;;19.53;61.52;98465.13;5014092;28;20154;-72
2023/05/29 03:33:03;;;;;;;4.25;3.10;;;;;;;19.53;61.51;98462.47;5031477;28;20033;-73
2023/05/29 03:35:32;;;;;;;4.30;3.10;;;;;;;19.54;61.43;98471.22;5030290;28;20025;-73
2023/05/29 03:37:57;;;;;;;4.53;3.38;;;;;;;19.55;61.46;98470.22;5030367;28;20084;-72
2023/05/29 03:40:23;;;;;;;4.10;3.10;;;;;;;19.56;61.39;98465.75;5030122;28;20488;-75
2023/05/29 03:42:48;;;;;;;3.88;3.28;;;;;;;19.57;61.58;98460.25;5030302;28;20034;-75
2023/05/29 03:45:14;;;;;;;4.97;2.70;;;;;;;19.69;66.66;98472.06;5031640;28;20492;-76
2023/05/29 03:47:39;;;;;;;5.57;2.67;;;;;;;19.79;67.41;98466.50;5030416;28;20056;-79
2023/05/29 03:50:06;;;;;;;13.57;3.25;;;;;;;20.00;68.34;98464.94;5032396;28;20033;-83
2023/05/29 03:52:31;;;;;;;7.95;3.15;;;;;;;20.29;67.04;98464.09;5030713;28;20022;-80
2023/05/29 03:54:57;;;;;;;8.68;2.70;;;;;;;20.56;66.18;98467.03;5031341;28;20033;-80
2023/05/29 03:57:22;;;;;;;18.65;3.10;;;;;;;20.76;66.30;98468.09;5031873;28;20030;-84
2023/05/29 03:59:48;;;;;;;15.65;3.30;;;;;;;20.96;65.30;98462.16;5031382;28;20152;-74
2023/05/29 04:02:13;;;;;;;7.55;3.20;;;;;;;21.10;64.54;98463.91;5031311;28;20033;-75
2023/05/29 04:04:39;;;;;;;9.00;2.90;;;;;;;21.23;64.47;98454.41;5016263;28;20099;-77
2023/05/29 04:07:06;;;;;;;9.88;3.03;;;;;;;21.34;64.19;98464.50;5001034;28;20025;-71
2023/05/29 04:09:32;;;;;;;8.23;2.78;;;;;;;21.32;62.06;98454.06;5034818;28;20030;-89
2023/05/29 04:11:59;;;;;;;15.80;3.10;;;;;;;21.46;60.97;98462.94;5034002;28;20030;-84
2023/05/29 04:14:25;;;;;;;6.20;2.90;;;;;;;21.56;60.41;98464.47;5034532;28;20064;-86
2023/05/29 04:16:50;;;;;;;12.73;2.95;;;;;;;21.55;60.19;98458.31;5034668;28;20026;-84
2023/05/29 04:19:16;;;;;;;7.82;2.78;;;;;;;21.45;59.66;98463.13;5016762;28;20045;-72
2023/05/29 04:21:42;;;;;;;4.57;2.83;;;;;;;21.37;59.29;98474.72;5034280;28;20051;-73
2023/05/29 04:24:07;;;;;;;5.57;2.83;;;;;;;21.25;59.67;98471.78;5034365;28;20155;-73
2023/05/29 04:26:33;;;;;;;5.70;2.58;;;;;;;21.22;59.39;98469.53;5032759;28;20051;-73
2023/05/29 04:28:58;;;;;;;3.55;2.60;;;;;;;21.17;59.55;98476.41;5032807;28;20052;-73
2023/05/29 04:31:25;;;;;;;3.15;2.70;;;;;;;21.11;59.45;98475.31;5034170;28;20056;-73
2023/05/29 04:33:54;;;;;;;4.30;2.80;;;;;;;21.12;59.33;98475.13;5034071;28;20469;-73
2023/05/29 04:36:23;;;;;;;3.92;2.83;;;;;;;21.09;59.49;98470.22;5034166;28;20025;-72
2023/05/29 04:38:51;;;;;;;4.70;3.08;;;;;;;21.18;59.17;98486.03;5016756;28;20087;-72
2023/05/29 04:41:16;;;;;;;6.95;3.75;;;;;;;21.22;59.25;98482.78;5033252;28;20415;-72
2023/05/29 04:43:42;;;;;;;5.07;3.97;;;;;;;21.30;59.10;98476.50;5047482;28;20044;-72
2023/05/29 04:46:12;;;;;;;7.15;4.20;;;;;;;21.44;59.03;98488.03;5052622;28;20087;-72
2023/05/29 04:48:40;;;;;;;6.03;4.55;;;;;;;21.56;58.45;98485.72;5052124;28;20572;-72
2023/05/29 04:51:06;;;;;;;9.63;4.78;;;;;;;21.68;58.35;98479.66;5036678;28;20041;-72
2023/05/29 04:53:32;;;;;;;7.10;4.93;;;;;;;21.89;57.97;98488.56;5036402;28;20488;-74
2023/05/29 04:55:57;;;;;;;6.13;4.90;;;;;;;22.02;57.47;98485.97;5036215;28;20048;-73
2023/05/29 04:58:25;;;;;;;8.63;6.15;;;;;;;22.11;57.26;98489.31;5052654;28;20547;-73
2023/05/29 05:00:51;;;;;;;10.73;7.30;;;;;;;22.27;56.93;98485.47;5052467;28;20119;-74
2023/05/29 05:03:16;;;;;;;9.13;7.63;;;;;;;22.48;56.62;98484.56;5052463;28;20128;-73
2023/05/29 05:05:43;;;;;;;9.98;7.78;;;;;;;22.82;55.72;98479.31;5035803;28;20040;-75
2023/05/29 05:08:09;;;;;;;10.52;7.53;;;;;;;23.04;54.98;98483.44;5035899;28;20400;-72
2023/05/29 05:10:35;;;;;;;12.18;7.70;;;;;;;23.47;54.50;98484.91;5035947;28;20049;-73
2023/05/29 05:13:02;;;;;;;15.05;7.60;;;;;;;24.46;52.04;98490.97;5053482;28;20075;-73
2023/05/29 05:15:28;;;;;;;12.57;8.40;;;;;;;25.24;49.81;98489.88;5051854;28;20041;-72
2023/05/29 05:17:53;;;;;;;9.77;7.22;;;;;;;25.24;50.30;98487.22;5052126;28;20040;-74
2023/05/29 05:20:19;;;;;;;8.60;7.00;;;;;;;25.30;50.10;98506.09;5015124;28;20041;-74
2023/05/29 05:22:45;;;;;;;7.82;6.50;;;;;;;25.39;49.70;98502.94;5051343;28;20033;-75
2023/05/29 05:25:11;;;;;;;10.13;6.72;;;;;;;25.78;48.87;98497.44;5051550;28;20080;-76
2023/05/29 05:27:36;;;;;;;7.47;6.35;;;;;;;26.12;47.98;98506.75;5035332;28;20127;-75
2023/05/29 05:30:06;;;;;;;8.93;7.10;;;;;;;25.94;48.29;98504.06;5034531;28;20033;-76
2023/05/29 05:32:32;;;;;;;9.43;7.13;;;;;;;25.88;48.75;98507.63;5051770;28;20089;-76
2023/05/29 05:34:58;;;;;;;7.78;6.97;;;;;;;25.89;48.42;98502.06;5035213;28;20045;-76
2023/05/29 05:37:23;;;;;;;9.57;7.60;;;;;;;25.90;48.75;98498.34;5035772;28;20029;-77
2023/05/29 05:39:53;;;;;;;8.63;7.43;;;;;;;25.89;48.74;98501.25;5035768;28;20488;-73
2023/05/29 05:42:19;;;;;;;9.35;7.68;;;;;;;25.85;48.54;98510.72;5035880;28;20432;-73
2023/05/29 05:44:45;;;;;;;8.82;7.47;;;;;;;25.81;48.42;98505.03;5051948;28;20097;-73
2023/05/29 05:47:10;;;;;;;9.05;7.72;;;;;;;25.74;48.90;98510.41;5051777;28;20487;-72
2023/05/29 05:49:36;;;;;;;4.65;3.47;;;;;;;25.65;49.30;98511.75;5051901;28;20041;-79
2023/05/29 05:52:01;;;;;;;10.70;3.85;;;;;;;25.49;49.83;98513.13;5036104;28;20404;-76
2023/05/29 05:54:27;;;;;;;9.35;3.92;;;;;;;25.30;49.97;98509.56;5053018;28;20036;-75
2023/05/29 05:56:52;;;;;;;8.45;3.42;;;;;;;25.22;50.46;98515.16;5051698;28;20521;-80
2023/05/29 05:59:18;;;;;;;7.65;3.35;;;;;;;25.14;50.77;98499.41;5054493;28;20063;-73
2023/05/29 06:01:43;;;;;;;10.30;3.40;;;;;;;25.20;50.96;98509.22;5054175;28;20496;-71
2023/05/29 06:04:09;;;;;;;12.60;3.60;;;;;;;25.25;50.79;98506.72;5051692;28;20099;-72
2023/05/29 06:06:34;;;;;;;10.15;3.60;;;;;;;25.46;50.24;98502.91;5051437;28;20040;-71
2023/05/29 06:09:00;;;;;;;7.15;3.00;;;;;;;25.48;50.10;98505.34;5034618;28;20040;-70
2023/05/29 06:11:25;;;;;;;5.22;3.10;;;;;;;25.44;50.05;98505.78;5051053;28;20451;-70
2023/05/29 06:13:52;;;;;;;9.60;3.10;;;;;;;25.36;50.17;98492.69;5034947;28;20047;-71
2023/05/29 06:16:18;;;;;;;5.30;3.30;;;;;;;25.33;50.56;98494.97;5018471;28;20072;-70
2023/05/29 06:18:44;;;;;;;14.35;3.78;;;;;;;25.25;50.62;98490.69;5051070;28;20450;-70
2023/05/29 06:21:11;;;;;;;6.45;3.45;;;;;;;25.17;50.60;98491.78;5050809;28;20036;-78
2023/05/29 06:23:37;;;;;;;6.40;2.95;;;;;;;25.21;50.54;98500.19;5016791;28;20045;-70
2023/05/29 06:26:03;;;;;;;6.38;3.03;;;;;;;25.19;50.06;98496.91;5021703;28;20049;-72
2023/05/29 06:28:29;;;;;;;6.35;3.30;;;;;;;25.15;50.16;98499.19;5014323;28;20107;-74
2023/05/29 06:30:55;;;;;;;8.63;3.75;;;;;;;25.05;50.16;98491.69;5049618;28;20120;-74
2023/05/29 06:33:21;;;;;;;4.28;3.58;;;;;;;25.10;50.06;98491.03;5034572;28;20072;-74
2023/05/29 06:35:47;;;;;;;8.40;3.78;;;;;;;25.16;50.16;98492.00;5052314;28;20094;-71
2023/05/29 06:38:13;;;;;;;8.27;3.85;;;;;;;25.23;50.01;98506.13;5034153;28;20033;-73
2023/05/29 06:40:39;;;;;;;8.18;4.57;;;;;;;25.32;49.95;98504.03;5034190;28;20041;-72
2023/05/29 06:43:04;;;;;;;7.00;5.13;;;;;;;25.52;49.06;98499.31;5017863;28;20032;-70
2023/05/29 06:45:30;;;;;;;10.27;5.63;;;;;;;25.67;48.85;98495.50;5050796;28;20033;-72
2023/05/29 06:47:55;;;;;;;8.07;5.88;;;;;;;25.86;48.37;98504.34;5034068;28;20090;-73
2023/05/29 06:50:21;;;;;;;9.00;5.72;;;;;;;26.26;47.97;98504.72;5034625;28;20037;-73
2023/05/29 06:52:49;;;;;;;8.80;5.68;;;;;;;26.45;47.40;98507.41;5052034;28;20028;-73
2023/05/29 06:55:15;;;;;;;8.57;5.80;;;;;;;26.58;47.04;98499.19;5052163;28;20098;-71
2023/05/29 06:57:41;;;;;;;8.40;5.88;;;;;;;26.71;46.66;98506.25;5051938;28;20028;-72
2023/05/29 07:00:08;;;;;;;8.50;5.40;;;;;;;26.82;46.50;98508.16;5050540;28;20500;-72
2023/05/29 07:02:34;;;;;;;6.43;4.97;;;;;;;26.90;46.14;98501.66;5034031;28;20037;-72
2023/05/29 07:04:59;;;;;;;8.00;4.85;;;;;;;26.86;46.11;98503.97;5052157;28;20491;-71
2023/05/29 07:07:25;;;;;;;7.35;4.63;;;;;;;26.84;45.83;98511.41;5034313;28;20067;-71
2023/05/29 07:09:51;;;;;;;7.07;4.28;;;;;;;26.80;46.14;98509.41;5051891;28;20424;-72
2023/05/29 07:12:16;;;;;;;7.57;4.40;;;;;;;26.70;46.16;98513.47;5051744;28;20428;-73
2023/05/29 07:14:42;;;;;;;7.68;4.32;;;;;;;26.66;45.83;98512.28;5051830;28;20059;-72
2023/05/29 07:17:07;;;;;;;7.43;4.65;;;;;;;26.61;46.48;98516.66;5050488;28;20044;-72
2023/05/29 07:19:33;;;;;;;5.43;4.00;;;;;;;26.57;46.35;98510.09;5051812;28;20033;-71
2023/05/29 07:21:59;;;;;;;12.50;4.38;;;;;;;26.51;46.20;98520.69;5051782;28;20021;-72
2023/05/29 07:24:25;;;;;;;4.55;3.97;;;;;;;26.44;46.54;98513.78;5051957;28;20494;-73
2023/05/29 07:26:50;;;;;;;4.20;3.67;;;;;;;26.37;46.53;98519.22;5017066;28;20107;-73
2023/05/29 07:29:17;;;;;;;4.68;3.50;;;;;;;26.35;46.63;98527.47;5050493;28;20037;-74
2023/05/29 07:31:44;;;;;;;6.93;3.80;;;;;;;26.29;46.98;98509.63;5050506;28;20108;-71
2023/05/29 07:34:10;;;;;;;4.32;3.55;;;;;;;26.29;46.93;98517.66;5034066;28;20052;-73
2023/05/29 07:36:35;;;;;;;5.40;3.22;;;;;;;26.26;46.80;98519.97;5034049;28;20029;-72
2023/05/29 07:39:02;;;;;;;5.53;3.42;;;;;;;26.23;47.02;98518.56;5054950;28;20082;-72
2023/05/29 07:41:27;;;;;;;4.82;3.47;;;;;;;26.25;47.24;98515.66;5037762;28;20120;-76
2023/05/29 07:43:53;;;;;;;4.28;3.30;;;;;;;26.28;46.67;98516.06;5054321;28;20104;-72
2023/05/29 07:46:19;;;;;;;3.95;3.28;;;;;;;26.27;46.87;98514.41;5054166;28;20447;-74
2023/05/29 07:48:46;;;;;;;4.28;3.25;;;;;;;26.40;46.69;98508.06;5054265;28;20404;-73
2023/05/29 07:51:11;;;;;;;3.92;2.97;;;;;;;26.67;46.48;98507.75;5055368;28;20239;-72
2023/05/29 07:53:37;;;;;;;3.67;2.80;;;;;;;26.88;46.45;98509.94;5053626;28;20571;-73
2023/05/29 07:56:02;;;;;;;4.75;3.20;;;;;;;26.91;46.32;98514.00;5053540;28;20083;-71
2023/05/29 07:58:28;;;;;;;4.28;3.38;;;;;;;26.97;46.15;98504.22;5055197;28;20096;-72
2023/05/29 08:00:53;;;;;;;5.15;3.30;;;;;;;27.01;45.83;98505.38;5055062;28;20033;-73
2023/05/29 08:03:19;;;;;;;5.45;3.55;;;;;;;27.10;45.46;98508.56;5037803;28;20037;-71
2023/05/29 08:05:45;;;;;;;4.95;3.53;;;;;;;27.08;45.18;98508.78;5055083;28;20060;-73
2023/05/29 08:08:12;;;;;;;5.07;4.38;;;;;;;27.15;45.02;98514.88;5037054;28;20082;-72
2023/05/29 08:10:38;;;;;;;5.70;4.55;;;;;;;27.20;45.00;98506.97;5053786;28;20079;-72
2023/05/29 08:13:04;;;;;;;7.00;5.10;;;;;;;27.66;44.17;98511.78;5053651;28;20110;-73
2023/05/29 08:15:31;;;;;;;7.63;4.50;;;;;;;28.14;43.43;98508.03;5020600;28;20045;-71
2023/05/29 08:17:56;;;;;;;6.68;5.22;;;;;;;28.29;43.35;98511.03;5053609;28;20040;-73
2023/05/29 08:20:22;;;;;;;6.38;4.90;;;;;;;28.49;43.19;98515.16;5036932;28;20032;-73
2023/05/29 08:22:47;;;;;;;6.35;5.65;;;;;;;28.50;43.03;98516.78;5054845;28;20029;-72
2023/05/29 08:25:13;;;;;;;8.50;5.60;;;;;;;28.62;42.52;98506.03;5053676;28;20377;-74
2023/05/29 08:27:38;;;;;;;6.88;5.53;;;;;;;28.76;42.12;98518.09;5036596;28;20060;-72
2023/05/29 08:30:04;;;;;;;7.45;5.35;;;;;;;28.82;41.81;98525.19;5053188;28;20021;-72
2023/05/29 08:32:30;;;;;;;6.30;5.35;;;;;;;28.87;41.42;98509.16;5036735;28;20052;-74
2023/05/29 08:34:55;;;;;;;6.82;4.22;;;;;;;29.03;41.25;98512.94;5054436;28;20028;-72
2023/05/29 08:37:21;;;;;;;7.38;4.60;;;;;;;29.09;40.67;98513.84;5054417;28;20029;-73
2023/05/29 08:39:46;;;;;;;7.10;5.68;;;;;;;29.14;40.95;98518.47;5054061;28;20029;-73
2023/05/29 08:42:24;;;;;;;6.82;5.75;;;;;;;29.17;40.67;98516.13;5052721;28;20041;-72
2023/05/29 08:44:49;;;;;;;8.00;5.72;;;;;;;29.23;40.66;98514.38;5053264;28;20036;-73
2023/05/29 08:47:20;;;;;;;6.55;5.63;;;;;;;29.27;40.38;98510.13;5052965;28;20037;-73
2023/05/29 08:49:45;;;;;;;6.60;4.90;;;;;;;29.34;39.92;98494.66;5021068;28;20037;-72
2023/05/29 08:52:16;;;;;;;5.80;5.13;;;;;;;29.46;39.57;98499.13;5052899;28;20029;-72
2023/05/29 08:54:41;;;;;;;6.00;4.60;;;;;;;29.58;39.47;98505.22;5036371;28;20524;-74
2023/05/29 08:57:07;;;;;;;5.10;4.40;;;;;;;29.67;39.87;98502.94;5035984;28;20040;-72
2023/05/29 08:59:33;;;;;;;6.72;4.60;;;;;;;29.97;38.79;98501.72;5054244;28;20175;-73
2023/05/29 09:01:58;;;;;;;5.97;4.07;;;;;;;30.48;38.12;98494.28;5052548;28;20037;-72
2023/05/29 09:04:24;;;;;;;6.20;3.60;;;;;;;30.91;38.23;98487.16;5052631;28;20575;-72
2023/05/29 09:06:49;;;;;;;6.40;3.58;;;;;;;31.20;37.76;98498.50;5052236;28;20048;-73
2023/05/29 09:09:16;;;;;;;6.13;3.33;;;;;;;31.50;36.97;98477.38;5052556;28;20104;-73
2023/05/29 09:11:41;;;;;;;4.85;3.20;;;;;;;31.79;37.06;98477.84;5053707;28;20029;-73
2023/05/29 09:14:11;;;;;;;7.32;3.00;;;;;;;31.97;36.59;98479.28;5036181;28;20478;-71
2023/05/29 09:16:42;;;;;;;3.63;2.63;;;;;;;32.17;35.97;98478.59;5052234;28;20112;-72
2023/05/29 09:19:07;;;;;;;3.30;2.50;;;;;;;32.37;36.12;98477.00;5036138;28;20120;-74
2023/05/29 09:21:33;;;;;;;6.15;2.60;;;;;;;32.50;35.81;98473.00;5051931;28;20049;-72
2023/05/29 09:24:08;;;;;;;4.38;2.60;;;;;;;32.58;35.43;98462.47;5035694;28;20041;-73
2023/05/29 09:26:34;;;;;;;3.17;2.22;;;;;;;32.68;35.45;98467.09;5052111;28;20072;-72
2023/05/29 09:28:59;;;;;;;3.13;2.38;;;;;;;32.75;35.58;98464.13;5035743;28;20067;-72
2023/05/29 09:31:25;;;;;;;5.90;2.72;;;;;;;32.77;35.48;98465.50;5052676;28;20120;-70
2023/05/29 09:33:51;;;;;;;5.10;2.70;;;;;;;32.79;34.79;98476.03;5035079;28;20488;-71
2023/05/29 09:36:21;;;;;;;5.90;2.83;;;;;;;32.77;35.03;98467.41;5051797;28;20312;-73
2023/05/29 09:38:47;;;;;;;3.58;2.85;;;;;;;32.77;35.02;98462.00;5035625;28;20029;-72
2023/05/29 09:41:12;;;;;;;3.28;2.58;;;;;;;32.59;35.32;98465.97;5052909;28;20045;-71
2023/05/29 09:43:39;;;;;;;3.80;2.78;;;;;;;32.57;35.51;98460.03;5051954;28;20032;-76
2023/05/29 09:46:06;;;;;;;4.13;2.95;;;;;;;32.47;35.09;98467.03;5035403;28;20063;-71
2023/05/29 09:48:32;;;;;;;4.95;3.10;;;;;;;32.36;35.48;98470.81;5051751;28;20036;-71
2023/05/29 09:50:58;;;;;;;4.72;2.72;;;;;;;32.36;35.27;98478.91;5053208;28;20044;-72
2023/05/29 09:53:28;;;;;;;7.35;2.92;;;;;;;32.31;35.13;98484.31;5051278;28;20040;-70
2023/05/29 09:55:54;;;;;;;3.17;2.47;;;;;;;32.30;35.01;98468.38;5051514;28;20397;-72
2023/05/29 09:58:21;;;;;;;3.10;2.35;;;;;;;32.30;35.30;98479.16;5034958;28;20140;-72
2023/05/29 10:00:47;;;;;;;5.00;2.80;;;;;;;32.23;35.06;98472.13;5053142;28;20060;-73
2023/05/29 10:03:12;;;;;;;5.15;2.63;;;;;;;32.15;35.25;98455.63;5034172;28;20041;-72
2023/05/29 10:05:39;;;;;;;3.20;2.30;;;;;;;32.04;35.50;98457.44;5051877;28;20033;-72
2023/05/29 10:08:06;;;;;;;5.38;2.28;;;;;;;31.95;35.77;98459.03;5035088;28;20587;-73
2023/05/29 10:10:31;;;;;;;2.97;2.10;;;;;;;31.86;35.92;98443.34;5051364;28;20037;-72
2023/05/29 10:12:58;;;;;;;5.38;2.40;;;;;;;31.77;36.09;98444.09;5051391;28;20454;-70
2023/05/29 10:15:23;;;;;;;4.05;2.67;;;;;;;31.74;36.04;98440.06;5051112;28;20087;-72
2023/05/29 10:18:04;;;;;;;3.58;2.70;;;;;;;31.65;36.48;98445.13;5035076;28;20029;-72
2023/05/29 10:20:29;;;;;;;4.88;3.17;;;;;;;31.62;36.80;98440.25;5051211;28;20029;-72
2023/05/29 10:22:56;;;;;;;3.90;2.78;;;;;;;31.56;36.83;98439.44;5034913;28;20036;-73
2023/05/29 10:25:21;;;;;;;4.00;2.85;;;;;;;31.52;36.87;98426.69;5034499;28;20033;-73
2023/05/29 10:27:48;;;;;;;3.58;2.58;;;;;;;31.47;36.96;98432.06;5052603;28;20057;-73
2023/05/29 10:30:42;;;;;;;4.32;2.55;;;;;;;31.39;36.71;98438.75;5034644;28;20480;-73
2023/05/29 10:33:30;;;;;;;4.57;2.45;;;;;;;31.34;37.23;98430.63;5051167;28;20045;-73
2023/05/29 10:36:14;;;;;;;;;;;;;;;31.28;36.83;98434.38;5052904;28;20025;-71
2023/05/29 10:38:45;;;;;;;3.75;3.00;;;;;;;31.26;37.14;98440.00;5051118;28;20378;-71
2023/05/29 10:41:28;;;;;;;3.72;2.60;;;;;;;31.26;37.52;98431.13;5052077;28;20041;-71
2023/05/29 10:44:00;;;;;;;3.55;2.67;;;;;;;31.24;37.22;98427.88;5052510;28;20043;-72
2023/05/29 10:46:48;;;;;;;4.82;3.00;;;;;;;31.25;37.45;98434.88;5051085;28;20114;-73
2023/05/29 10:49:17;;;;;;;5.25;2.92;;;;;;;31.20;37.19;98443.75;5050664;28;20033;-75
2023/05/29 10:51:43;;;;;;;5.10;2.60;;;;;;;31.26;36.98;98440.00;5017924;28;20448;-74
2023/05/29 10:54:09;;;;;;;4.13;2.78;;;;;;;31.21;37.30;98443.50;5050668;28;20052;-71
2023/05/29 10:56:34;;;;;;;5.05;2.70;;;;;;;31.31;37.14;98448.16;5034604;28;20044;-71
2023/05/29 10:59:02;;;;;;;3.60;2.70;;;;;;;31.33;36.90;98442.50;5017968;28;20487;-71
2023/05/29 11:01:29;;;;;;;5.72;2.58;;;;;;;31.21;37.25;98435.41;5050806;28;20057;-73
2023/05/29 11:04:21;;;;;;;3.65;2.80;;;;;;;31.10;37.72;98433.72;5051840;28;20035;-71
2023/05/29 11:06:47;;;;;;;3.95;2.63;;;;;;;31.05;37.55;98440.97;5049945;28;20049;-71
2023/05/29 11:09:38;;;;;;;4.18;2.67;;;;;;;30.98;37.56;98433.91;5050146;28;20041;-71
2023/05/29 11:12:35;;;;;;;3.70;2.70;;;;;;;30.80;38.33;98434.25;5051073;28;20105;-72
2023/05/29 11:15:06;;;;;;;3.97;2.70;;;;;;;30.62;38.09;98430.06;5056476;28;20025;-72
2023/05/29 11:17:37;;;;;;;3.05;2.63;;;;;;;30.31;38.74;98453.97;5038262;28;20025;-72
2023/05/29 11:20:27;;;;;;;4.50;2.63;;;;;;;30.01;38.76;98455.22;5054864;28;20036;-70
2023/05/29 11:22:59;;;;;;;3.65;2.20;;;;;;;29.67;39.40;98455.31;5055809;28;20037;-71
2023/05/29 11:25:25;;;;;;;7.05;2.30;;;;;;;29.29;39.90;98465.00;5055642;28;20021;-71
2023/05/29 11:27:52;;;;;;;5.10;2.40;;;;;;;29.00;40.00;98474.97;5038048;28;20511;-70
2023/05/29 11:30:18;;;;;;;3.70;2.40;;;;;;;28.74;40.60;98477.25;5038174;28;20025;-71
2023/05/29 11:32:44;;;;;;;4.68;2.22;;;;;;;28.56;40.75;98472.88;5054432;28;20528;-71
2023/05/29 11:35:11;;;;;;;5.32;2.63;;;;;;;28.40;41.37;98484.38;5055542;28;20024;-72